OIII/THR METAR and TAF weather

Enter ICAO airport designator
Station Type Date Time Source
OIII METAR 2019/10/15 21:30 UTC NOAA

OIII 152130Z 33004KT CAVOK 18/02 Q1024 A3024


Station Type Date Time Source
OIII Decoded METAR 2019/10/15 21:30 UTC NOAA

Tehran-Mehrabad, Iran (OIII) 35-41N 051-21E 1191M
Oct 15, 2019 - 05:30 PM EDT / 2019.10.15 2130 UTC
Wind: from the NNW (330 degrees) at 5 MPH (4 KT):0
Visibility: greater than 7 mile(s):0
Temperature: 64 F (18 C)
Dew Point: 35 F (2 C)
Relative Humidity: 34%
Pressure (altimeter): 30.24 in. Hg (1024 hPa)
ob: OIII 152130Z 33004KT CAVOK 18/02 Q1024 A3024
cycle: 21

Station Type Date Time Source
OIII TAF 2019/10/15 18:03 UTC NOAA

TAF OIII 151750Z 1518/1624 32008KT 8000 FEW040
TEMPO 1608/1612 20014KT

Example: see airport list